Rocky Ridge, Ohio
Current Conditions -  °F | °C
As of 6:53 PM on Friday 24 Oct 2014 (Local Time) from KTDZ Reporting Station
Haze Haze  
Wind Chill: 57°   Ceiling: 4500
Heat Index: 57°   Visibility: 4mi
Dew Point: 45°   Wind: 5mph
Humidity: 64%   Direction: 240°WSW
Pressure: 30"   Gusts: NA
Location:  41.53°N, 83.21°W
Report Text: KTDZ 242253Z AUTO 24004KT 4SM HZ OVC045 14/07 A3000 RMK AO2 SLP162 T01390072 TSNO
Loading
Personal Weather Stations






























Interactive Weather Map
Tropical Storm Tracking
New forecast layout! Learn more

10-Day Weather Forecast

Advertisements
Track Severe Weather on mobile